createdAt,value
2022-10-03T00:01:50.802Z,3.03
2022-10-03T00:05:57.224Z,3.70
2022-10-03T00:10:03.049Z,3.47
2022-10-03T00:14:09.821Z,3.50
2022-10-03T00:18:19.612Z,3.17
2022-10-03T00:22:27.005Z,3.67
2022-10-03T00:26:34.424Z,4.07
2022-10-03T00:30:45.916Z,3.57
2022-10-03T00:34:57.420Z,3.30
2022-10-03T00:39:22.897Z,3.13
2022-10-03T00:43:47.648Z,2.80
2022-10-03T00:48:01.052Z,3.47
2022-10-03T00:52:14.388Z,2.80
2022-10-03T00:56:31.659Z,3.60
2022-10-03T01:00:34.254Z,3.00
2022-10-03T01:04:40.817Z,3.50
2022-10-03T01:08:52.713Z,2.97
2022-10-03T01:13:04.606Z,3.27
2022-10-03T01:17:12.256Z,3.70
2022-10-03T01:21:19.382Z,4.30
2022-10-03T01:25:28.856Z,3.63
2022-10-03T01:29:42.527Z,3.83
2022-10-03T01:33:46.820Z,3.93
2022-10-03T01:37:51.611Z,3.70
2022-10-03T01:41:57.842Z,3.80
2022-10-03T01:46:05.835Z,3.97
2022-10-03T01:50:13.909Z,4.23
2022-10-03T01:54:19.544Z,4.20
2022-10-03T01:58:23.632Z,4.20
2022-10-03T02:02:28.603Z,3.77
2022-10-03T02:06:35.300Z,4.10
2022-10-03T02:10:40.741Z,5.03
2022-10-03T02:14:47.492Z,4.70
2022-10-03T02:18:53.637Z,4.30
2022-10-03T02:22:55.792Z,4.50
2022-10-03T02:27:07.389Z,4.30
2022-10-03T02:31:22.325Z,4.80
2022-10-03T02:35:44.436Z,4.57
2022-10-03T02:40:00.560Z,4.10
2022-10-03T02:44:16.250Z,4.63
2022-10-03T02:48:32.435Z,4.23
2022-10-03T02:52:55.296Z,4.73
2022-10-03T02:57:24.948Z,5.00
2022-10-03T03:01:44.014Z,4.40
2022-10-03T03:06:05.440Z,4.30
2022-10-03T03:10:22.208Z,5.00
2022-10-03T03:14:41.320Z,4.77
2022-10-03T03:18:48.965Z,4.60
2022-10-03T03:23:03.988Z,4.03
2022-10-03T03:27:13.281Z,4.60
2022-10-03T03:31:16.386Z,4.17
2022-10-03T03:35:24.700Z,4.20
2022-10-03T03:39:44.153Z,4.60
2022-10-03T03:43:53.621Z,4.47
2022-10-03T03:48:00.372Z,4.40
2022-10-03T03:52:09.840Z,4.43
2022-10-03T03:56:29.049Z,4.87
2022-10-03T04:00:38.655Z,4.20
2022-10-03T04:04:45.577Z,3.70
2022-10-03T04:09:01.102Z,4.33
2022-10-03T04:13:09.168Z,4.50
2022-10-03T04:17:18.364Z,5.10
2022-10-03T04:21:32.428Z,5.27
2022-10-03T04:25:42.369Z,5.20
2022-10-03T04:29:46.204Z,5.10
2022-10-03T04:33:52.784Z,5.30
2022-10-03T04:38:00.684Z,5.57
2022-10-03T04:42:10.190Z,5.70
2022-10-03T04:46:16.839Z,5.60
2022-10-03T04:50:31.661Z,4.90
2022-10-03T04:54:39.579Z,5.40
2022-10-03T04:58:48.428Z,5.00
2022-10-03T05:02:52.448Z,5.30
2022-10-03T05:06:59.824Z,5.00
2022-10-03T05:11:04.655Z,5.20
2022-10-03T05:15:14.996Z,4.70
2022-10-03T05:19:31.128Z,5.00
2022-10-03T05:23:41.673Z,4.83
2022-10-03T05:27:47.286Z,5.37
2022-10-03T05:31:55.653Z,6.07
2022-10-03T05:36:07.394Z,5.33
2022-10-03T05:40:14.349Z,5.63
2022-10-03T05:44:17.780Z,5.73
2022-10-03T05:48:24.876Z,5.60
2022-10-03T05:52:37.013Z,6.30
2022-10-03T05:56:45.593Z,6.77
2022-10-03T06:01:04.661Z,5.80
2022-10-03T06:05:15.253Z,5.90
2022-10-03T06:09:31.236Z,5.50
2022-10-03T06:13:48.508Z,6.40
2022-10-03T06:17:57.412Z,5.57
2022-10-03T06:22:16.613Z,5.80
2022-10-03T06:26:32.452Z,5.67
2022-10-03T06:30:40.847Z,5.97
2022-10-03T06:34:51.616Z,5.93
2022-10-03T06:39:07.737Z,5.67
2022-10-03T06:43:27.296Z,5.60
2022-10-03T06:47:39.208Z,7.50
2022-10-03T06:51:49.753Z,6.03
2022-10-03T06:56:09.965Z,5.50
2022-10-03T07:00:13.166Z,6.20
2022-10-03T07:04:32.514Z,6.20
2022-10-03T07:08:42.871Z,7.03
2022-10-03T07:12:59.018Z,7.50
2022-10-03T07:17:08.603Z,6.83
2022-10-03T07:21:28.835Z,6.47
2022-10-03T07:25:47.788Z,6.63
2022-10-03T07:30:07.771Z,6.13
2022-10-03T07:34:27.187Z,6.10
2022-10-03T07:38:46.387Z,5.73
2022-10-03T07:43:00.013Z,6.70
2022-10-03T07:47:31.193Z,6.77
2022-10-03T07:51:35.229Z,6.53
2022-10-03T07:55:44.676Z,5.90
2022-10-03T07:59:57.200Z,6.20
2022-10-03T08:04:22.572Z,5.80
2022-10-03T08:08:51.345Z,6.37
2022-10-03T08:13:05.461Z,5.90
2022-10-03T08:17:15.957Z,6.23
2022-10-03T08:21:18.744Z,6.23
2022-10-03T08:25:25.370Z,5.83
2022-10-03T08:29:31.881Z,5.87
2022-10-03T08:33:48.167Z,6.33
2022-10-03T08:38:02.683Z,5.77
2022-10-03T08:42:16.641Z,5.03
2022-10-03T08:46:30.447Z,6.67
2022-10-03T08:50:39.209Z,5.27
2022-10-03T08:54:58.943Z,5.00
2022-10-03T08:59:13.141Z,5.00
2022-10-03T09:03:37.849Z,4.73
2022-10-03T09:07:57.761Z,4.80
2022-10-03T09:12:16.679Z,4.40
2022-10-03T09:16:28.265Z,4.33
2022-10-03T09:20:53.621Z,4.57
2022-10-03T09:25:09.901Z,4.70
2022-10-03T09:29:44.400Z,4.20
2022-10-03T09:34:05.377Z,4.07
2022-10-03T09:38:21.640Z,3.83
2022-10-03T09:42:36.469Z,3.50
2022-10-03T09:46:59.836Z,3.43
2022-10-03T09:51:11.567Z,3.33
2022-10-03T09:55:30.032Z,3.67
2022-10-03T09:59:37.011Z,3.33
2022-10-03T10:03:56.638Z,2.83
2022-10-03T10:08:22.191Z,3.60
2022-10-03T10:12:51.025Z,3.50
2022-10-03T10:17:22.537Z,3.63
2022-10-03T10:21:36.514Z,2.97
2022-10-03T10:25:53.755Z,2.20
2022-10-03T10:30:02.898Z,2.37
2022-10-03T10:34:36.848Z,2.47
2022-10-03T10:39:10.191Z,2.57
2022-10-03T10:43:26.317Z,2.40
2022-10-03T10:47:45.405Z,2.30
2022-10-03T10:52:11.125Z,2.37
2022-10-03T10:56:31.266Z,1.83
2022-10-03T11:00:44.191Z,2.17
2022-10-03T11:05:06.491Z,2.07
2022-10-03T11:09:34.943Z,2.27
2022-10-03T11:13:53.858Z,2.00
2022-10-03T11:18:14.742Z,2.00
2022-10-03T11:22:44.104Z,2.40
2022-10-03T11:27:02.101Z,2.00
2022-10-03T11:31:24.235Z,2.10
2022-10-03T11:35:44.079Z,2.63
2022-10-03T11:39:48.885Z,2.10
2022-10-03T11:44:05.072Z,2.00
2022-10-03T11:48:16.891Z,1.80
2022-10-03T11:52:25.649Z,1.97
2022-10-03T11:56:34.400Z,1.70
2022-10-03T12:00:36.929Z,1.90
2022-10-03T12:04:44.609Z,1.90
2022-10-03T12:08:52.836Z,1.73
2022-10-03T12:12:55.264Z,2.10
2022-10-03T12:17:01.449Z,1.90
2022-10-03T12:21:07.481Z,1.87
2022-10-03T12:25:17.839Z,1.63
2022-10-03T12:29:20.297Z,1.50
2022-10-03T12:33:29.799Z,1.73
2022-10-03T12:37:35.496Z,1.77
2022-10-03T12:41:54.016Z,1.67
2022-10-03T12:45:58.856Z,1.77
2022-10-03T12:50:04.525Z,1.93
2022-10-03T12:54:11.240Z,1.87
2022-10-03T12:58:18.033Z,2.30
2022-10-03T13:02:27.173Z,1.87
2022-10-03T13:07:02.244Z,1.63
2022-10-03T13:11:09.600Z,1.63
2022-10-03T13:15:31.841Z,2.07
2022-10-03T13:19:39.517Z,1.80
2022-10-03T13:23:44.231Z,1.70
2022-10-03T13:27:47.596Z,1.93
2022-10-03T13:32:10.099Z,1.50
2022-10-03T13:36:18.390Z,1.53
2022-10-03T13:40:19.953Z,1.73
2022-10-03T13:44:22.276Z,1.80
2022-10-03T13:48:24.942Z,1.87
2022-10-03T13:52:33.362Z,1.67
2022-10-03T13:56:41.454Z,2.10
2022-10-03T14:00:48.198Z,1.60
2022-10-03T14:05:13.474Z,1.67
2022-10-03T14:09:33.178Z,1.80
2022-10-03T14:13:41.714Z,1.50
2022-10-03T14:17:46.285Z,2.00
2022-10-03T14:21:57.089Z,1.60
2022-10-03T14:26:03.414Z,1.60
2022-10-03T14:30:05.789Z,1.40
2022-10-03T14:34:11.185Z,1.67
2022-10-03T14:38:23.854Z,1.40
2022-10-03T14:42:32.357Z,1.50
2022-10-03T14:46:35.636Z,1.37
2022-10-03T14:50:38.381Z,1.57
2022-10-03T14:54:41.593Z,1.57
2022-10-03T14:58:46.610Z,1.23
2022-10-03T15:02:49.672Z,1.63
2022-10-03T15:06:52.065Z,1.60
2022-10-03T15:10:55.617Z,1.60
2022-10-03T15:15:01.806Z,1.70
2022-10-03T15:19:07.392Z,1.40
2022-10-03T15:23:17.751Z,1.50
2022-10-03T15:27:21.049Z,1.40
2022-10-03T15:31:28.298Z,1.50
2022-10-03T15:35:33.353Z,1.77
2022-10-03T15:39:36.030Z,2.10
2022-10-03T15:43:42.192Z,1.43
2022-10-03T15:47:46.245Z,1.60
2022-10-03T15:51:47.821Z,1.23
2022-10-03T15:55:50.550Z,1.70
2022-10-03T15:59:52.829Z,1.27
2022-10-03T16:03:57.353Z,1.33
2022-10-03T16:08:00.869Z,1.10
2022-10-03T16:12:10.317Z,1.70
2022-10-03T16:16:15.494Z,1.70
2022-10-03T16:20:21.793Z,1.80
2022-10-03T16:24:28.986Z,1.50
2022-10-03T16:28:31.415Z,5.13
2022-10-03T16:32:35.158Z,2.00
2022-10-03T16:36:42.661Z,1.77
2022-10-03T16:40:50.202Z,1.40
2022-10-03T16:44:52.213Z,1.53
2022-10-03T16:48:55.372Z,1.93
2022-10-03T16:52:58.858Z,2.00
2022-10-03T16:57:01.287Z,1.93
2022-10-03T17:01:25.796Z,1.77
2022-10-03T17:05:25.082Z,1.80
2022-10-03T17:09:32.145Z,1.90
2022-10-03T17:13:39.837Z,1.80
2022-10-03T17:17:45.632Z,1.67
2022-10-03T17:21:48.352Z,1.63
2022-10-03T17:25:57.384Z,1.80
2022-10-03T17:30:01.536Z,1.60
2022-10-03T17:34:09.957Z,1.40
2022-10-03T17:38:37.193Z,1.40
2022-10-03T17:42:40.888Z,1.50
2022-10-03T17:46:46.991Z,1.57
2022-10-03T17:50:52.863Z,1.80
2022-10-03T17:54:56.102Z,1.40
2022-10-03T17:59:01.866Z,1.10
2022-10-03T18:03:05.205Z,1.50
2022-10-03T18:07:08.534Z,1.63
2022-10-03T18:11:09.875Z,1.50
2022-10-03T18:15:29.872Z,1.37
2022-10-03T18:19:39.920Z,1.33
2022-10-03T18:23:54.754Z,1.70
2022-10-03T18:28:10.573Z,1.70
2022-10-03T18:32:15.927Z,1.30
2022-10-03T18:36:20.791Z,1.53
2022-10-03T18:40:25.158Z,1.30
2022-10-03T18:44:28.173Z,1.40
2022-10-03T18:48:32.211Z,1.50
2022-10-03T18:52:40.234Z,1.70
2022-10-03T18:56:42.184Z,1.70
2022-10-03T19:00:47.747Z,1.60
2022-10-03T19:04:51.975Z,1.63
2022-10-03T19:08:56.042Z,2.17
2022-10-03T19:13:01.171Z,1.47
2022-10-03T19:17:11.915Z,1.30
2022-10-03T19:21:15.547Z,1.83
2022-10-03T19:25:20.182Z,1.60
2022-10-03T19:29:22.557Z,1.60
2022-10-03T19:33:25.141Z,1.50
2022-10-03T19:37:33.036Z,1.70
2022-10-03T19:41:38.090Z,1.27
2022-10-03T19:45:39.563Z,1.50
2022-10-03T19:49:52.857Z,1.50
2022-10-03T19:53:55.158Z,1.70
2022-10-03T19:57:58.999Z,1.60
2022-10-03T20:02:03.776Z,1.67
2022-10-03T20:06:08.298Z,1.70
2022-10-03T20:10:15.790Z,1.60
2022-10-03T20:14:19.105Z,1.70
2022-10-03T20:18:21.812Z,2.00
2022-10-03T20:22:24.556Z,1.80
2022-10-03T20:26:31.683Z,1.80
2022-10-03T20:30:38.333Z,2.07
2022-10-03T20:34:40.971Z,1.60
2022-10-03T20:38:50.948Z,1.80
2022-10-03T20:42:53.613Z,1.90
2022-10-03T20:47:01.783Z,2.00
2022-10-03T20:51:03.862Z,2.03
2022-10-03T20:55:06.769Z,2.60
2022-10-03T20:59:10.144Z,2.23
2022-10-03T21:03:15.509Z,2.10
2022-10-03T21:07:22.907Z,2.70
2022-10-03T21:11:26.283Z,2.20
2022-10-03T21:15:33.883Z,2.50
2022-10-03T21:19:45.652Z,2.40
2022-10-03T21:23:49.948Z,2.33
2022-10-03T21:27:53.201Z,2.90
2022-10-03T21:32:01.060Z,3.20
2022-10-03T21:36:07.277Z,2.70
2022-10-03T21:40:15.932Z,2.83
2022-10-03T21:44:27.719Z,2.80
2022-10-03T21:48:31.716Z,2.80
2022-10-03T21:52:49.580Z,3.00
2022-10-03T21:56:57.060Z,3.13
2022-10-03T22:01:04.668Z,3.27
2022-10-03T22:05:11.659Z,3.00
2022-10-03T22:09:14.281Z,3.53
2022-10-03T22:13:18.244Z,3.03
2022-10-03T22:17:23.932Z,2.70
2022-10-03T22:21:26.575Z,2.87
2022-10-03T22:25:35.894Z,3.00
2022-10-03T22:29:42.192Z,3.40
2022-10-03T22:33:55.879Z,2.60
2022-10-03T22:37:57.659Z,3.00
2022-10-03T22:42:00.188Z,2.40
2022-10-03T22:46:03.214Z,3.00
2022-10-03T22:50:08.273Z,2.90
2022-10-03T22:54:10.997Z,2.80
2022-10-03T22:58:13.185Z,2.83
2022-10-03T23:02:16.832Z,3.10
2022-10-03T23:06:32.352Z,3.00
2022-10-03T23:10:37.688Z,3.03
2022-10-03T23:14:41.744Z,2.70
2022-10-03T23:18:50.312Z,3.00
2022-10-03T23:22:53.660Z,2.80
2022-10-03T23:27:02.173Z,3.00
2022-10-03T23:31:04.453Z,2.80
2022-10-03T23:35:14.504Z,3.00
2022-10-03T23:39:30.656Z,2.83
2022-10-03T23:43:33.567Z,3.00
2022-10-03T23:47:39.365Z,2.57
2022-10-03T23:51:42.596Z,3.00
2022-10-03T23:55:44.532Z,2.97
2022-10-03T23:59:46.184Z,3.10
